KLWB/LWB METAR and TAF weather

Enter ICAO airport designator
Station Type Date Time Source
KLWB METAR 2022/06/29 00:55 UTC NOAA

KLWB 290055Z AUTO 00000KT 10SM CLR 20/10 A3026 RMK AO2 T02020099


Station Type Date Time Source
KLWB Decoded METAR 2022/06/29 00:55 UTC NOAA

Lewisburg / Greenbrier, WV, United States (KLWB) 37-52N 080-24W
Jun 28, 2022 - 08:55 PM EDT / 2022.06.29 0055 UTC
Wind: Calm:0
Visibility: 10 mile(s):0
Sky conditions: clear
Temperature: 68.4 F (20.2 C)
Dew Point: 49.8 F (9.9 C)
Relative Humidity: 51%
Pressure (altimeter): 30.26 in. Hg (1024 hPa)
ob: KLWB 290055Z AUTO 00000KT 10SM CLR 20/10 A3026 RMK AO2 T02020099
cycle: 1

Station Type Date Time Source
KLWB TAF 2022/06/28 18:22 UTC NOAA

TAF KLWB 281720Z 2818/2918 VRB04KT P6SM SCT050
FM290800 00000KT 1SM BR FEW250
FM291500 24005KT P6SM FEW050

Example: see airport list